Terminal Aerodrome Forecast
Issued by NWS

Home | Current Version | Previous Version | Text Only | Print | Product List | Glossary On
Versions: 1 2 3 4 5 6 7 8 9 10 11 12 13 14
988
FTUS45 KPIH 151726
TAFSUN
TAF
KSUN 151726Z 1518/1624 15006KT P6SM SCT120
     FM160200 32006KT P6SM VCSH BKN020
     FM160800 31005KT 5SM -SN SCT010 OVC040
     FM161600 15008KT P6SM VCSH SCT010 BKN040=

USA.gov is the U.S. government's official web portal to all federal, state and local government web resources and services.